Time;durP1;ratioP1;P1;durP2;ratioP2;P2;SDS_P1;SDS_P2;PMS_P1;PMS_P2;Temp;Humidity;BMP_temperature;BMP_pressure;BME280_temperature;BME280_humidity;BME280_pressure;Samples;Min_cycle;Max_cycle;Signal;HPM_P1;HPM_P2
2023/02/24 00:01:36;;;;;;;12.87;8.60;;;5.00;99.90;;;;;;4998454;28;20018;-77
2023/02/24 00:04:06;;;;;;;15.10;8.13;;;5.00;99.90;;;;;;4999264;28;20037;-77
2023/02/24 00:06:36;;;;;;;14.37;8.27;;;4.90;99.90;;;;;;4999713;28;20072;-78
2023/02/24 00:09:10;;;;;;;15.53;8.60;;;4.90;99.90;;;;;;4999758;28;20144;-77
2023/02/24 00:11:39;;;;;;;14.30;9.10;;;4.80;99.90;;;;;;4999292;28;20149;-78
2023/02/24 00:14:06;;;;;;;13.53;8.30;;;4.80;99.90;;;;;;4998572;28;20470;-77
2023/02/24 00:16:33;;;;;;;14.70;8.70;;;4.80;99.90;;;;;;4998048;28;20133;-77
2023/02/24 00:18:59;;;;;;;13.90;8.83;;;4.80;99.90;;;;;;4997500;28;20027;-77
2023/02/24 00:21:25;;;;;;;16.23;9.00;;;4.70;99.90;;;;;;4997503;28;20084;-77
2023/02/24 00:23:52;;;;;;;15.57;8.83;;;4.70;99.90;;;;;;4999087;28;20164;-78
2023/02/24 00:26:18;;;;;;;15.60;9.00;;;4.70;99.90;;;;;;5001038;28;20018;-78
2023/02/24 00:28:44;;;;;;;17.40;8.47;;;4.70;99.90;;;;;;5014849;28;20033;-77
2023/02/24 00:31:15;;;;;;;19.33;9.90;;;4.60;99.90;;;;;;5001568;28;20026;-77
2023/02/24 00:33:42;;;;;;;17.03;8.47;;;4.60;99.90;;;;;;5002350;28;20041;-77
2023/02/24 00:36:11;;;;;;;17.60;9.30;;;4.50;99.90;;;;;;4999770;28;20018;-77
2023/02/24 00:38:39;;;;;;;16.40;8.27;;;4.50;99.90;;;;;;4999856;28;20117;-77
2023/02/24 00:41:14;;;;;;;17.57;8.53;;;4.50;99.90;;;;;;5000649;28;20018;-77
2023/02/24 00:43:48;;;;;;;16.47;9.43;;;4.40;99.90;;;;;;5000695;28;20033;-77
2023/02/24 00:46:19;;;;;;;12.60;8.33;;;4.40;99.90;;;;;;5001718;28;20034;-77
2023/02/24 00:48:46;;;;;;;14.70;7.63;;;4.40;99.90;;;;;;4998813;28;20041;-77
2023/02/24 00:51:24;;;;;;;12.63;7.73;;;4.40;99.90;;;;;;5000326;28;20078;-77
2023/02/24 00:53:54;;;;;;;13.20;8.63;;;4.40;99.90;;;;;;5000393;28;20344;-77
2023/02/24 00:56:21;;;;;;;14.20;8.70;;;4.40;99.90;;;;;;5001375;28;20033;-77
2023/02/24 00:58:47;;;;;;;11.93;7.43;;;4.40;99.90;;;;;;5000961;28;20084;-77
2023/02/24 01:01:18;;;;;;;13.97;8.13;;;4.40;99.90;;;;;;4999344;28;20030;-77
2023/02/24 01:03:45;;;;;;;18.17;8.07;;;4.40;99.90;;;;;;4998090;28;20029;-78
2023/02/24 01:06:12;;;;;;;13.97;7.87;;;4.40;99.90;;;;;;4998657;28;20029;-77
2023/02/24 01:08:41;;;;;;;12.07;7.60;;;4.40;99.90;;;;;;5000748;28;20050;-77
2023/02/24 01:13:52;;;;;;;16.40;9.48;;;4.40;99.90;;;;;;5000117;28;20434;-77
2023/02/24 01:16:18;;;;;;;17.30;9.27;;;4.40;99.90;;;;;;4999934;28;20557;-77
2023/02/24 01:18:46;;;;;;;16.63;8.17;;;4.30;99.90;;;;;;4999141;28;20026;-77
2023/02/24 01:21:13;;;;;;;14.03;8.13;;;4.30;99.90;;;;;;5000271;28;20026;-77
2023/02/24 01:23:40;;;;;;;14.27;8.57;;;4.30;99.90;;;;;;5001365;28;20114;-77
2023/02/24 01:26:06;;;;;;;13.10;8.50;;;4.30;99.90;;;;;;5000008;28;20057;-77
2023/02/24 01:28:31;;;;;;;16.57;8.83;;;4.30;99.90;;;;;;4999729;28;20153;-77
2023/02/24 01:31:01;;;;;;;17.47;9.43;;;4.20;99.90;;;;;;4998466;28;20498;-77
2023/02/24 01:33:28;;;;;;;16.77;8.77;;;4.20;99.90;;;;;;5000203;28;20030;-77
2023/02/24 01:35:56;;;;;;;13.80;8.43;;;4.20;99.90;;;;;;5001350;28;20546;-77
2023/02/24 01:38:22;;;;;;;18.93;9.50;;;4.20;99.90;;;;;;4998904;28;20034;-77
2023/02/24 01:41:03;;;;;;;12.90;8.77;;;4.10;99.90;;;;;;4997766;28;20017;-77
2023/02/24 01:43:30;;;;;;;15.53;10.00;;;4.10;99.90;;;;;;4999700;28;20062;-77
2023/02/24 01:45:56;;;;;;;15.80;10.17;;;4.10;99.90;;;;;;4997550;28;20022;-77
2023/02/24 01:48:23;;;;;;;16.57;9.77;;;4.10;99.90;;;;;;4997980;28;20810;-77
2023/02/24 01:50:50;;;;;;;14.63;9.70;;;4.10;99.90;;;;;;4998410;28;20022;-77
2023/02/24 01:53:16;;;;;;;17.33;10.73;;;4.00;99.90;;;;;;5000252;28;20542;-77
2023/02/24 01:55:51;;;;;;;16.17;10.20;;;4.00;99.90;;;;;;4998535;28;20060;-77
2023/02/24 01:58:23;;;;;;;13.05;9.77;;;4.10;99.90;;;;;;5000814;28;20022;-77
2023/02/24 02:00:50;;;;;;;16.47;10.13;;;4.00;99.90;;;;;;4998274;28;20025;-77
2023/02/24 02:03:23;;;;;;;17.53;10.40;;;4.00;99.90;;;;;;5005818;28;20023;-78
2023/02/24 02:05:50;;;;;;;15.90;10.43;;;4.00;99.90;;;;;;5004692;28;20026;-77
2023/02/24 02:08:18;;;;;;;14.97;9.93;;;4.00;99.90;;;;;;5007728;28;20034;-77
2023/02/24 02:10:44;;;;;;;14.97;9.13;;;3.90;99.90;;;;;;5007347;28;20032;-77
2023/02/24 02:13:12;;;;;;;13.57;8.90;;;3.90;99.90;;;;;;5007360;28;20471;-77
2023/02/24 02:15:51;;;;;;;15.37;8.50;;;3.80;99.90;;;;;;5007824;28;20084;-77
2023/02/24 02:18:30;;;;;;;15.57;8.67;;;3.70;99.90;;;;;;5007604;28;20057;-77
2023/02/24 02:21:24;;;;;;;12.27;8.43;;;3.70;99.90;;;;;;5007183;28;20474;-77
2023/02/24 02:24:17;;;;;;;12.47;8.17;;;3.60;99.90;;;;;;5008531;28;20134;-77
2023/02/24 02:27:19;;;;;;;12.37;8.17;;;3.50;99.90;;;;;;5007075;28;20092;-77
2023/02/24 02:29:45;;;;;;;14.10;8.83;;;3.50;99.90;;;;;;5008779;28;20496;-77
2023/02/24 02:32:38;;;;;;;15.70;9.50;;;3.40;99.90;;;;;;5009763;28;20030;-77
2023/02/24 02:35:13;;;;;;;14.23;8.90;;;3.40;99.90;;;;;;5011470;28;20022;-77
2023/02/24 02:38:07;;;;;;;17.10;8.98;;;3.40;99.90;;;;;;5007631;28;20018;-77
2023/02/24 02:40:43;;;;;;;19.13;9.40;;;3.40;99.90;;;;;;5016697;28;20451;-77
2023/02/24 02:43:24;;;;;;;17.27;9.53;;;3.40;99.90;;;;;;5010428;28;20352;-77
2023/02/24 02:46:02;;;;;;;18.90;8.90;;;3.40;99.90;;;;;;5004737;28;20176;-77
2023/02/24 02:48:48;;;;;;;15.63;8.60;;;3.40;99.90;;;;;;5007610;28;20112;-77
2023/02/24 02:51:19;;;;;;;13.52;8.77;;;3.30;99.90;;;;;;5000457;28;20037;-77
2023/02/24 02:53:55;;;;;;;15.37;8.83;;;3.30;99.90;;;;;;5007018;28;20050;-77
2023/02/24 02:56:22;;;;;;;;;;;3.30;99.90;;;;;;5007019;28;20105;-77
2023/02/24 02:58:52;;;;;;;12.87;8.90;;;3.30;99.90;;;;;;5007027;28;19918;-77
2023/02/24 03:01:21;;;;;;;16.43;8.77;;;3.20;99.90;;;;;;5005950;28;20014;-77
2023/02/24 03:03:51;;;;;;;15.93;9.23;;;3.20;99.90;;;;;;5015291;28;20058;-77
2023/02/24 03:06:23;;;;;;;16.67;9.60;;;3.20;99.90;;;;;;5007374;28;20019;-77
2023/02/24 03:09:14;;;;;;;14.00;9.10;;;3.20;99.90;;;;;;5015733;28;20506;-77
2023/02/24 03:11:52;;;;;;;13.40;8.90;;;3.20;99.90;;;;;;5005939;28;20034;-80
2023/02/24 03:14:24;;;;;;;13.63;9.40;;;3.20;99.90;;;;;;5005108;28;20264;-83
2023/02/24 03:16:52;;;;;;;14.17;8.90;;;3.10;99.90;;;;;;5004512;28;20029;-83
2023/02/24 03:19:25;;;;;;;18.27;10.07;;;3.10;99.90;;;;;;5006468;28;20084;-83
2023/02/24 03:22:11;;;;;;;14.83;9.93;;;3.10;99.90;;;;;;5007545;28;20022;-80
2023/02/24 03:24:38;;;;;;;15.80;9.97;;;3.10;99.90;;;;;;5005170;28;20025;-78
2023/02/24 03:27:38;;;;;;;17.97;9.93;;;3.10;99.90;;;;;;5003296;28;20112;-78
2023/02/24 03:30:31;;;;;;;15.07;9.30;;;3.10;99.90;;;;;;5003659;28;20029;-83
2023/02/24 03:33:08;;;;;;;15.87;9.93;;;3.10;99.90;;;;;;5004767;28;20034;-77
2023/02/24 03:35:39;;;;;;;16.63;9.10;;;3.10;99.90;;;;;;5006311;28;20930;-82
2023/02/24 03:38:05;;;;;;;16.60;9.33;;;3.00;99.90;;;;;;5008224;28;20033;-79
2023/02/24 03:40:34;;;;;;;16.10;9.77;;;3.00;99.90;;;;;;5005743;28;20018;-80
2023/02/24 03:43:26;;;;;;;13.33;8.83;;;3.00;99.90;;;;;;5010358;28;20324;-80
2023/02/24 03:45:53;;;;;;;12.67;8.57;;;3.00;99.90;;;;;;5003660;28;20041;-79
2023/02/24 03:48:20;;;;;;;12.40;8.47;;;3.00;99.90;;;;;;5007735;28;20025;-79
2023/02/24 03:50:46;;;;;;;14.37;9.00;;;3.00;99.90;;;;;;5003694;28;20048;-79
2023/02/24 03:53:29;;;;;;;15.20;8.73;;;2.90;99.90;;;;;;5007320;28;20042;-79
2023/02/24 03:55:57;;;;;;;14.00;8.27;;;3.00;99.90;;;;;;5011638;28;20109;-80
2023/02/24 03:58:47;;;;;;;13.43;8.23;;;2.90;99.90;;;;;;5008291;28;20023;-80
2023/02/24 04:01:24;;;;;;;12.83;7.93;;;3.00;99.90;;;;;;5020874;28;20022;-79
2023/02/24 04:04:00;;;;;;;16.40;8.20;;;3.00;99.90;;;;;;5008401;28;20117;-80
2023/02/24 04:06:48;;;;;;;12.80;8.37;;;3.00;99.90;;;;;;5005841;28;20026;-79
2023/02/24 04:09:20;;;;;;;13.53;7.67;;;2.90;99.90;;;;;;5004081;28;20076;-79
2023/02/24 04:12:17;;;;;;;13.37;8.70;;;2.90;99.90;;;;;;5005114;28;20022;-79
2023/02/24 04:15:11;;;;;;;12.20;8.27;;;2.90;99.90;;;;;;5012389;28;20365;-80
2023/02/24 04:17:49;;;;;;;13.87;8.67;;;2.90;99.90;;;;;;5006584;28;20044;-79
2023/02/24 04:20:19;;;;;;;14.90;9.10;;;2.90;99.90;;;;;;5009228;28;20057;-79
2023/02/24 04:22:50;;;;;;;11.73;7.90;;;2.90;99.90;;;;;;5004706;28;20060;-79
2023/02/24 04:25:23;;;;;;;12.47;8.13;;;2.90;99.90;;;;;;5011469;28;20463;-80
2023/02/24 04:27:52;;;;;;;12.23;7.53;;;3.00;99.90;;;;;;5004443;28;20010;-80
2023/02/24 04:30:19;;;;;;;13.37;8.60;;;3.00;99.90;;;;;;5010643;28;20028;-80
2023/02/24 04:32:45;;;;;;;15.43;8.40;;;3.00;99.90;;;;;;5007194;28;20010;-80
2023/02/24 04:35:18;;;;;;;15.13;8.10;;;3.00;99.90;;;;;;5006096;28;20029;-79
2023/02/24 04:37:44;;;;;;;16.17;8.07;;;3.10;99.90;;;;;;5004202;28;20021;-80
2023/02/24 04:40:11;;;;;;;13.60;7.93;;;3.10;99.90;;;;;;5009346;28;20022;-80
2023/02/24 04:42:47;;;;;;;12.57;7.87;;;3.10;99.90;;;;;;5004165;28;20066;-80
2023/02/24 04:45:28;;;;;;;12.43;7.47;;;3.10;99.90;;;;;;5003909;28;20018;-79
2023/02/24 04:47:59;;;;;;;12.57;7.87;;;3.10;99.90;;;;;;5002281;28;20019;-80
2023/02/24 04:50:28;;;;;;;10.00;7.57;;;3.10;99.90;;;;;;5004313;28;20026;-80
2023/02/24 04:52:59;;;;;;;13.50;7.73;;;3.10;99.90;;;;;;5004062;28;20057;-79
2023/02/24 04:55:28;;;;;;;15.03;7.87;;;3.10;99.90;;;;;;5007361;28;20049;-79
2023/02/24 04:57:55;;;;;;;14.17;7.63;;;3.10;99.90;;;;;;5012003;28;20026;-79
2023/02/24 05:00:21;;;;;;;11.83;7.17;;;3.10;99.90;;;;;;5009308;28;20053;-79
2023/02/24 05:02:52;;;;;;;14.03;7.50;;;3.10;99.90;;;;;;5004394;28;20386;-80
2023/02/24 05:05:32;;;;;;;13.73;7.53;;;3.10;99.90;;;;;;5012315;28;20399;-79
2023/02/24 05:08:03;;;;;;;10.17;7.40;;;3.10;99.90;;;;;;4998468;28;20025;-79
2023/02/24 05:10:40;;;;;;;13.13;7.13;;;3.10;99.90;;;;;;5001960;28;20018;-79
2023/02/24 05:13:11;;;;;;;12.17;6.43;;;3.10;99.90;;;;;;5008907;28;20038;-79
2023/02/24 05:15:40;;;;;;;9.77;6.23;;;3.00;99.90;;;;;;5009441;28;20376;-79
2023/02/24 05:18:07;;;;;;;13.33;6.93;;;3.00;99.90;;;;;;5006267;28;20026;-79
2023/02/24 05:23:30;;;;;;;11.83;6.80;;;2.90;99.90;;;;;;5010324;28;20099;-79
2023/02/24 05:25:57;;;;;;;12.87;6.67;;;2.90;99.90;;;;;;5005606;28;20014;-77
2023/02/24 05:28:24;;;;;;;11.03;6.80;;;2.80;99.90;;;;;;5007171;28;20339;-83
2023/02/24 05:30:53;;;;;;;11.47;7.10;;;2.80;99.90;;;;;;5005404;28;20063;-83
2023/02/24 05:33:20;;;;;;;8.53;6.13;;;2.80;99.90;;;;;;5003549;28;20075;-83
2023/02/24 05:35:47;;;;;;;16.80;8.00;;;2.80;99.90;;;;;;5006686;28;20097;-84
2023/02/24 05:38:13;;;;;;;13.27;6.87;;;2.80;99.90;;;;;;5006955;28;20026;-83
2023/02/24 05:40:45;;;;;;;13.07;6.47;;;2.80;99.90;;;;;;5006216;28;20462;-83
2023/02/24 05:43:16;;;;;;;11.60;6.73;;;2.80;99.90;;;;;;5005250;28;20044;-83
2023/02/24 05:45:44;;;;;;;13.43;7.37;;;2.80;99.90;;;;;;5003362;28;20018;-83
2023/02/24 05:48:10;;;;;;;12.83;7.70;;;2.80;99.90;;;;;;5004417;28;20028;-83
2023/02/24 05:50:37;;;;;;;12.23;6.70;;;2.80;99.90;;;;;;5000786;28;20486;-83
2023/02/24 05:53:03;;;;;;;10.13;6.87;;;2.80;99.90;;;;;;5002842;28;20054;-83
2023/02/24 05:55:30;;;;;;;12.47;7.33;;;2.80;99.90;;;;;;5005398;28;20030;-83
2023/02/24 05:57:58;;;;;;;12.10;6.87;;;2.80;99.90;;;;;;5004565;28;20463;-84
2023/02/24 06:00:24;;;;;;;13.63;6.40;;;2.80;99.90;;;;;;5002031;28;20482;-84
2023/02/24 06:02:51;;;;;;;11.47;6.57;;;2.80;99.90;;;;;;5001699;28;20018;-84
2023/02/24 06:05:24;;;;;;;10.97;6.47;;;2.70;99.90;;;;;;4998318;28;20105;-80
2023/02/24 06:08:01;;;;;;;12.30;6.90;;;2.70;99.90;;;;;;5005183;28;20026;-77
2023/02/24 06:10:30;;;;;;;13.43;6.30;;;2.70;99.90;;;;;;5002797;28;20443;-80
2023/02/24 06:12:56;;;;;;;14.13;6.87;;;2.70;99.90;;;;;;5004080;28;20543;-80
2023/02/24 06:15:21;;;;;;;10.50;6.03;;;2.70;99.90;;;;;;5006769;28;20022;-80
2023/02/24 06:17:48;;;;;;;14.20;6.73;;;2.70;99.90;;;;;;5001692;28;20049;-79
2023/02/24 06:20:14;;;;;;;17.50;7.27;;;2.70;99.90;;;;;;5002087;28;20030;-80
2023/02/24 06:22:43;;;;;;;16.00;6.93;;;2.60;99.90;;;;;;5002621;28;20097;-80
2023/02/24 06:25:12;;;;;;;18.70;7.87;;;2.60;99.90;;;;;;5000971;28;20113;-81
2023/02/24 06:27:39;;;;;;;13.37;7.07;;;2.60;99.90;;;;;;5009967;28;20116;-81
2023/02/24 06:30:09;;;;;;;15.43;6.93;;;2.60;99.90;;;;;;5002573;28;20116;-81
2023/02/24 06:32:35;;;;;;;15.40;6.80;;;2.60;99.90;;;;;;5001613;28;20531;-81
2023/02/24 06:35:01;;;;;;;13.47;6.17;;;2.60;99.90;;;;;;5004381;28;20026;-81
2023/02/24 06:37:28;;;;;;;13.57;7.10;;;2.60;99.90;;;;;;5002122;28;20030;-81
2023/02/24 06:39:54;;;;;;;16.40;6.83;;;2.60;99.90;;;;;;4999775;28;20112;-81
2023/02/24 06:42:20;;;;;;;12.70;7.30;;;2.60;99.90;;;;;;5001636;28;20104;-81
2023/02/24 06:44:46;;;;;;;13.10;7.77;;;2.60;99.90;;;;;;5007183;28;20084;-81
2023/02/24 06:47:24;;;;;;;;;;;;;;;;;;;;;
2023/02/24 06:49:50;;;;;;;12.10;6.80;;;2.70;99.90;;;;;;5004196;28;20033;-81
2023/02/24 06:52:17;;;;;;;16.90;7.33;;;2.80;99.90;;;;;;5006019;28;20493;-81
2023/02/24 06:54:43;;;;;;;12.07;6.97;;;2.90;99.90;;;;;;5008968;28;20037;-81
2023/02/24 06:57:10;;;;;;;12.03;7.03;;;3.00;99.90;;;;;;5007100;28;20459;-81
2023/02/24 06:59:36;;;;;;;12.83;6.90;;;3.00;99.90;;;;;;5008435;28;20093;-81
2023/02/24 07:02:02;;;;;;;9.03;6.30;;;3.10;99.90;;;;;;5003159;28;20030;-78
2023/02/24 07:04:28;;;;;;;10.17;6.30;;;3.20;99.90;;;;;;5001755;28;20029;-80
2023/02/24 07:06:56;;;;;;;11.63;6.50;;;3.20;99.90;;;;;;5004515;28;20076;-80
2023/02/24 07:09:26;;;;;;;13.63;6.27;;;3.30;99.90;;;;;;5009865;28;21021;-80
2023/02/24 07:11:54;;;;;;;12.53;6.27;;;3.40;99.90;;;;;;5005477;28;20640;-80
2023/02/24 07:14:22;;;;;;;14.67;6.87;;;3.40;99.90;;;;;;4998951;28;20434;-80
2023/02/24 07:16:52;;;;;;;15.77;5.97;;;3.50;99.90;;;;;;5001565;28;20034;-80
2023/02/24 07:19:20;;;;;;;11.70;5.47;;;3.50;99.90;;;;;;5002623;28;20060;-80
2023/02/24 07:21:49;;;;;;;12.80;6.60;;;3.60;99.90;;;;;;5000814;28;20101;-80
2023/02/24 07:24:23;;;;;;;13.97;5.93;;;3.60;99.90;;;;;;5001273;28;20052;-84
2023/02/24 07:27:00;;;;;;;16.40;6.18;;;3.80;99.90;;;;;;5005415;28;20026;-80
2023/02/24 07:29:28;;;;;;;13.37;5.40;;;3.90;99.90;;;;;;5005795;28;20034;-81
2023/02/24 07:31:56;;;;;;;11.10;5.53;;;4.00;99.90;;;;;;5008227;28;20116;-80
2023/02/24 07:34:24;;;;;;;12.43;5.93;;;4.10;99.90;;;;;;5003818;28;20025;-85
2023/02/24 07:36:54;;;;;;;12.90;6.10;;;4.20;99.90;;;;;;5002403;28;20030;-85
2023/02/24 07:39:21;;;;;;;11.57;5.70;;;4.30;99.90;;;;;;5001871;28;20053;-85
2023/02/24 07:41:48;;;;;;;9.07;5.57;;;4.40;99.90;;;;;;5000201;28;20030;-85
2023/02/24 07:44:16;;;;;;;14.73;6.17;;;4.50;99.90;;;;;;5000662;28;20095;-85
2023/02/24 07:46:41;;;;;;;15.73;5.43;;;4.60;99.90;;;;;;5001903;28;20041;-85
2023/02/24 07:49:29;;;;;;;14.93;6.57;;;4.70;99.90;;;;;;5002557;28;20034;-85
2023/02/24 07:51:57;;;;;;;11.80;5.83;;;4.80;99.90;;;;;;5016173;28;20044;-85
2023/02/24 07:54:30;;;;;;;16.53;6.40;;;4.80;99.90;;;;;;5003366;28;21505;-85
2023/02/24 07:57:00;;;;;;;14.93;6.27;;;4.90;99.90;;;;;;5002806;28;20022;-84
2023/02/24 07:59:28;;;;;;;14.00;6.23;;;5.00;99.90;;;;;;4999621;28;20017;-84
2023/02/24 08:01:57;;;;;;;14.40;6.00;;;5.10;99.90;;;;;;5004476;28;20029;-85
2023/02/24 08:04:28;;;;;;;13.40;6.20;;;5.10;99.90;;;;;;5003193;28;20360;-85
2023/02/24 08:06:55;;;;;;;11.63;6.13;;;5.20;99.90;;;;;;5006859;28;20437;-85
2023/02/24 08:10:09;;;;;;;12.97;6.67;;;5.20;99.90;;;;;;5005039;28;21373;-79
2023/02/24 08:12:20;;;;;;;14.13;6.67;;;5.30;99.90;;;;;;5004426;28;20093;-80
2023/02/24 08:14:51;;;;;;;15.27;6.73;;;5.40;99.90;;;;;;5002438;28;20068;-80
2023/02/24 08:17:25;;;;;;;11.90;6.90;;;5.50;99.90;;;;;;5003423;28;20025;-80
2023/02/24 08:20:20;;;;;;;18.33;6.50;;;5.50;99.90;;;;;;5003760;28;20035;-80
2023/02/24 08:22:42;;;;;;;16.77;7.37;;;5.60;99.90;;;;;;5005740;28;20046;-80
2023/02/24 08:25:09;;;;;;;14.10;6.70;;;5.70;99.90;;;;;;5003101;28;20490;-79
2023/02/24 08:27:37;;;;;;;19.87;7.10;;;5.80;99.90;;;;;;5001798;28;20793;-80
2023/02/24 08:30:06;;;;;;;16.20;7.43;;;5.90;99.90;;;;;;4998633;28;20335;-79
2023/02/24 08:32:42;;;;;;;11.03;6.47;;;5.90;99.90;;;;;;4999252;28;20021;-80
2023/02/24 08:35:31;;;;;;;17.67;6.83;;;6.00;99.90;;;;;;5001256;28;20165;-80
2023/02/24 08:38:18;;;;;;;12.70;7.30;;;6.00;99.90;;;;;;5000292;28;20084;-80
2023/02/24 08:40:49;;;;;;;14.80;8.47;;;6.10;99.90;;;;;;4999787;28;20111;-79
2023/02/24 08:46:02;;;;;;;12.03;7.27;;;6.20;99.90;;;;;;5002472;28;20482;-80
2023/02/24 08:48:40;;;;;;;14.43;7.90;;;6.30;99.90;;;;;;5004358;28;20446;-80
2023/02/24 08:51:23;;;;;;;16.97;7.57;;;6.30;99.90;;;;;;5003937;28;20145;-80
2023/02/24 08:53:54;;;;;;;13.93;8.00;;;6.40;99.90;;;;;;5004792;28;20038;-80
2023/02/24 08:56:27;;;;;;;19.13;8.57;;;6.50;99.90;;;;;;5006071;28;20109;-80
2023/02/24 08:59:04;;;;;;;15.00;8.83;;;6.60;99.90;;;;;;5003093;28;20496;-80
2023/02/24 09:01:33;;;;;;;21.10;8.63;;;6.70;99.90;;;;;;5005151;28;20022;-80
2023/02/24 09:04:05;;;;;;;19.90;8.10;;;6.80;99.90;;;;;;5000561;28;20388;-74
2023/02/24 09:06:47;;;;;;;18.40;8.87;;;6.90;99.90;;;;;;5004856;28;20109;-80
2023/02/24 09:09:19;;;;;;;16.37;8.93;;;7.00;99.90;;;;;;5003548;28;20033;-80
2023/02/24 09:11:46;;;;;;;21.83;10.73;;;7.20;99.90;;;;;;5000989;28;20463;-78
2023/02/24 09:14:17;;;;;;;16.03;9.03;;;7.40;99.90;;;;;;5001073;28;20767;-78
2023/02/24 09:17:02;;;;;;;18.90;10.73;;;7.50;99.90;;;;;;4999432;28;20955;-78
2023/02/24 09:22:31;;;;;;;19.90;10.10;;;7.90;99.90;;;;;;5000590;28;20526;-77
2023/02/24 09:25:20;;;;;;;22.00;10.70;;;8.00;99.90;;;;;;4996985;28;20023;-78
2023/02/24 09:27:54;;;;;;;22.17;11.47;;;8.20;99.90;;;;;;4999290;28;20053;-78
2023/02/24 09:30:36;;;;;;;22.27;12.13;;;8.40;99.90;;;;;;4998633;28;20076;-78
2023/02/24 09:33:16;;;;;;;26.07;12.77;;;8.50;99.90;;;;;;4982657;28;20522;-78
2023/02/24 09:36:01;;;;;;;21.40;12.43;;;8.70;99.90;;;;;;4999269;28;20125;-78
2023/02/24 09:44:40;;;;;;;21.73;11.10;;;9.30;99.90;;;;;;5002165;28;20045;-78
2023/02/24 09:47:07;;;;;;;;;;;9.60;99.90;;;;;;5012357;28;20026;-78
2023/02/24 09:49:55;;;;;;;20.90;12.87;;;10.10;99.90;;;;;;5000331;28;20347;-78
2023/02/24 09:52:38;;;;;;;25.63;14.97;;;10.40;99.90;;;;;;4998263;28;20495;-78
2023/02/24 09:55:23;;;;;;;24.90;13.73;;;10.70;99.90;;;;;;4999823;28;20072;-78
2023/02/24 10:01:19;;;;;;;24.30;15.00;;;11.00;99.90;;;;;;5001313;28;20030;-78
2023/02/24 10:03:51;;;;;;;25.17;14.50;;;11.00;99.90;;;;;;5002246;28;20050;-80
2023/02/24 10:06:22;;;;;;;24.80;14.07;;;10.90;99.90;;;;;;5006661;28;20025;-80
2023/02/24 10:09:10;;;;;;;30.63;14.88;;;10.90;99.90;;;;;;5006756;28;20018;-80
2023/02/24 10:12:02;;;;;;;21.88;13.15;;;10.80;99.90;;;;;;5000650;28;20102;-80
2023/02/24 10:17:46;;;;;;;22.23;13.80;;;10.80;99.90;;;;;;5005117;28;20065;-80
2023/02/24 10:20:38;;;;;;;22.07;13.20;;;10.70;99.90;;;;;;5002340;28;20113;-80
2023/02/24 10:23:43;;;;;;;23.55;13.55;;;10.60;99.90;;;;;;4998300;28;20052;-80
2023/02/24 10:26:20;;;;;;;22.93;12.63;;;10.70;99.90;;;;;;5000114;28;20024;-80
2023/02/24 10:28:59;;;;;;;19.77;13.05;;;10.70;99.90;;;;;;5000279;28;20113;-80
2023/02/24 10:31:46;;;;;;;20.25;12.27;;;10.70;99.90;;;;;;5011819;28;20038;-80
2023/02/24 10:34:24;;;;;;;21.63;13.88;;;11.00;99.90;;;;;;4998026;28;20116;-80
2023/02/24 10:36:50;;;;;;;23.40;12.88;;;11.10;99.90;;;;;;4999694;28;20048;-80
2023/02/24 10:39:24;;;;;;;24.38;12.80;;;11.20;99.90;;;;;;4997881;28;20475;-80
2023/02/24 10:42:15;;;;;;;22.43;12.53;;;11.30;99.90;;;;;;4995630;28;20086;-80
2023/02/24 10:44:50;;;;;;;21.17;12.23;;;11.40;99.90;;;;;;4997742;28;20289;-80
2023/02/24 10:47:32;;;;;;;20.58;12.15;;;11.40;99.90;;;;;;4995251;28;20470;-80
2023/02/24 10:49:59;;;;;;;21.23;12.75;;;11.50;99.90;;;;;;4997965;28;20150;-80
2023/02/24 10:53:09;;;;;;;27.45;13.82;;;11.50;99.90;;;;;;4994516;28;20058;-80
2023/02/24 10:58:06;;;;;;;20.60;12.27;;;11.30;99.90;;;;;;4997284;28;20117;-80
2023/02/24 11:03:45;;;;;;;18.92;11.30;;;11.30;99.90;;;;;;4999666;28;20036;-80
2023/02/24 11:06:56;;;;;;;20.55;12.23;;;11.30;99.90;;;;;;4998065;28;20379;-80
2023/02/24 11:18:05;;;;;;;29.02;15.27;;;11.40;99.90;;;;;;5002163;28;20033;-80
2023/02/24 11:20:45;;;;;;;25.27;13.50;;;11.40;99.90;;;;;;5001378;28;20030;-80
2023/02/24 11:23:16;;;;;;;22.15;13.40;;;11.40;99.90;;;;;;5000168;28;20391;-80
2023/02/24 11:25:47;;;;;;;25.25;14.43;;;11.50;99.90;;;;;;5000475;28;20104;-80
2023/02/24 11:28:32;;;;;;;24.45;13.70;;;11.50;99.90;;;;;;5000415;28;20033;-80
2023/02/24 11:31:11;;;;;;;24.05;12.35;;;11.50;99.90;;;;;;5000537;28;20037;-80
2023/02/24 11:33:41;;;;;;;25.47;12.97;;;11.40;99.90;;;;;;5000472;28;20056;-80
2023/02/24 11:36:22;;;;;;;26.17;13.77;;;11.40;99.90;;;;;;5001270;28;20029;-80
2023/02/24 11:39:06;;;;;;;27.60;13.38;;;11.40;99.90;;;;;;4999732;28;20052;-80
2023/02/24 11:41:39;;;;;;;23.17;13.10;;;11.30;99.90;;;;;;4997888;28;20027;-80
2023/02/24 11:44:20;;;;;;;24.50;12.82;;;11.30;99.90;;;;;;4997389;28;20991;-80
2023/02/24 11:46:56;;;;;;;23.07;11.80;;;11.30;99.90;;;;;;5002707;28;20018;-80
2023/02/24 11:49:47;;;;;;;19.67;11.25;;;11.30;99.90;;;;;;5003505;28;20472;-80
2023/02/24 11:52:17;;;;;;;22.77;12.35;;;11.20;99.90;;;;;;5000224;28;20049;-80
2023/02/24 11:54:49;;;;;;;21.10;10.43;;;11.20;99.90;;;;;;5000243;28;20026;-80
2023/02/24 11:57:50;;;;;;;23.67;10.15;;;11.10;99.90;;;;;;4999731;28;20850;-80
2023/02/24 12:00:19;;;;;;;25.65;10.32;;;11.10;99.90;;;;;;5006154;28;20030;-81
2023/02/24 12:03:03;;;;;;;20.10;10.30;;;11.00;99.90;;;;;;4999327;28;20173;-80
2023/02/24 12:05:40;;;;;;;23.08;11.48;;;10.90;99.90;;;;;;5002046;28;20471;-80
2023/02/24 12:08:15;;;;;;;20.10;10.60;;;10.80;99.90;;;;;;5002912;28;20033;-80
2023/02/24 12:10:47;;;;;;;17.05;10.00;;;10.70;99.90;;;;;;5000825;28;20070;-80
2023/02/24 12:13:31;;;;;;;21.00;11.87;;;10.70;99.90;;;;;;5001890;28;20029;-80
2023/02/24 12:15:56;;;;;;;22.80;12.30;;;10.60;99.90;;;;;;5000978;28;20046;-80
2023/02/24 12:18:29;;;;;;;21.47;11.87;;;10.50;99.90;;;;;;5001044;28;20120;-79
2023/02/24 12:21:26;;;;;;;20.63;11.43;;;10.50;99.90;;;;;;5001957;28;20124;-79
2023/02/24 12:23:52;;;;;;;25.17;10.60;;;10.50;99.90;;;;;;4992983;28;20105;-78
2023/02/24 12:26:24;;;;;;;16.77;11.20;;;10.50;99.90;;;;;;5001590;28;20477;-78
2023/02/24 12:29:41;;;;;;;22.60;11.47;;;10.50;99.90;;;;;;5002448;28;20075;-78
2023/02/24 12:32:34;;;;;;;24.70;12.05;;;10.50;99.90;;;;;;5003865;28;20040;-78
2023/02/24 12:35:41;;;;;;;18.63;11.50;;;10.40;99.90;;;;;;5015614;28;20033;-79
2023/02/24 12:38:26;;;;;;;23.07;12.57;;;10.50;99.90;;;;;;4970990;28;20041;-79
2023/02/24 12:41:23;;;;;;;23.43;11.00;;;10.40;99.90;;;;;;4982101;28;20175;-78
2023/02/24 12:44:23;;;;;;;21.93;11.23;;;10.50;99.90;;;;;;5000177;28;20041;-78
2023/02/24 12:47:10;;;;;;;26.23;11.77;;;10.40;99.90;;;;;;4990098;28;20049;-79
2023/02/24 12:49:54;;;;;;;29.83;12.17;;;10.30;99.90;;;;;;5001637;28;20031;-78
2023/02/24 12:52:42;;;;;;;30.83;12.17;;;10.30;99.90;;;;;;5003078;28;20050;-78
2023/02/24 12:55:14;;;;;;;28.40;13.03;;;10.20;99.90;;;;;;5005225;28;20060;-80
2023/02/24 12:57:53;;;;;;;27.30;12.70;;;10.10;99.90;;;;;;5003576;28;20130;-80
2023/02/24 13:00:28;;;;;;;26.47;13.37;;;10.10;99.90;;;;;;5003634;28;20026;-80
2023/02/24 13:02:59;;;;;;;;;;;10.00;99.90;;;;;;5006790;28;20022;-80
2023/02/24 13:05:36;;;;;;;22.70;13.57;;;10.00;99.90;;;;;;5007968;28;19906;-81
2023/02/24 13:08:55;;;;;;;26.17;13.83;;;9.90;99.90;;;;;;5007676;28;20033;-80
2023/02/24 13:11:36;;;;;;;20.70;12.60;;;9.80;99.90;;;;;;4995695;28;20041;-81
2023/02/24 13:14:26;;;;;;;24.60;13.67;;;9.70;99.90;;;;;;5017401;28;20049;-80
2023/02/24 13:17:16;;;;;;;23.73;13.70;;;9.70;99.90;;;;;;5006596;28;20113;-80
2023/02/24 13:19:43;;;;;;;24.87;14.13;;;9.70;99.90;;;;;;5004601;28;20027;-80
2023/02/24 13:22:11;;;;;;;27.90;15.10;;;9.70;99.90;;;;;;5004086;28;20014;-80
2023/02/24 13:24:42;;;;;;;23.83;13.87;;;9.70;99.90;;;;;;5003853;28;20474;-80
2023/02/24 13:27:21;;;;;;;21.33;13.53;;;9.70;99.90;;;;;;5006589;28;20497;-80
2023/02/24 13:29:59;;;;;;;25.53;15.10;;;9.70;99.90;;;;;;5009042;28;20018;-79
2023/02/24 13:32:32;;;;;;;25.80;14.53;;;9.70;99.90;;;;;;5004972;28;20026;-81
2023/02/24 13:35:18;;;;;;;29.00;14.63;;;9.60;99.90;;;;;;5001124;28;20023;-80
2023/02/24 13:37:46;;;;;;;32.17;15.53;;;9.60;99.90;;;;;;5003263;28;20441;-81
2023/02/24 13:40:15;;;;;;;28.67;15.00;;;9.60;99.90;;;;;;5000212;28;20025;-81
2023/02/24 13:42:42;;;;;;;26.40;14.53;;;9.70;99.90;;;;;;5003526;28;20025;-80
2023/02/24 13:45:13;;;;;;;22.97;14.10;;;9.70;99.90;;;;;;5002049;28;20106;-81
2023/02/24 13:47:58;;;;;;;22.53;13.73;;;9.60;99.90;;;;;;5007038;28;20022;-81
2023/02/24 13:51:17;;;;;;;28.42;14.40;;;9.70;99.90;;;;;;5003046;28;20044;-81
2023/02/24 13:53:46;;;;;;;29.27;14.70;;;9.70;99.90;;;;;;5003042;28;20100;-81
2023/02/24 13:56:48;;;;;;;30.20;15.27;;;9.60;99.90;;;;;;5005305;28;20466;-81
2023/02/24 13:59:52;;;;;;;24.73;15.20;;;9.60;99.90;;;;;;5008653;28;20105;-81